sensor_id;sensor_type;location;lat;lon;timestamp;pressure;altitude;pressure_sealevel;temperature;humidity
74544;BME280;63016;55.030;38.710;2023-10-13T00:00:37;98745.53;;;11.82;64.22
74544;BME280;63016;55.030;38.710;2023-10-13T00:03:06;98758.59;;;11.75;64.85
74544;BME280;63016;55.030;38.710;2023-10-13T00:05:34;98761.00;;;11.70;65.09
74544;BME280;63016;55.030;38.710;2023-10-13T00:08:00;98769.44;;;11.66;65.16
74544;BME280;63016;55.030;38.710;2023-10-13T00:10:30;98757.38;;;11.58;65.54
74544;BME280;63016;55.030;38.710;2023-10-13T00:12:56;98768.22;;;11.62;65.46
74544;BME280;63016;55.030;38.710;2023-10-13T00:15:42;98769.41;;;11.59;65.75
74544;BME280;63016;55.030;38.710;2023-10-13T00:18:30;98762.78;;;11.56;65.57
74544;BME280;63016;55.030;38.710;2023-10-13T00:21:00;98768.63;;;11.58;65.49
74544;BME280;63016;55.030;38.710;2023-10-13T00:23:26;98772.25;;;11.57;65.38
74544;BME280;63016;55.030;38.710;2023-10-13T00:25:54;98767.00;;;11.51;65.41
74544;BME280;63016;55.030;38.710;2023-10-13T00:28:27;98770.44;;;11.51;65.39
74544;BME280;63016;55.030;38.710;2023-10-13T00:31:01;98767.19;;;11.49;65.46
74544;BME280;63016;55.030;38.710;2023-10-13T00:33:37;98759.56;;;11.48;65.54
74544;BME280;63016;55.030;38.710;2023-10-13T00:36:03;98760.53;;;11.40;65.58
74544;BME280;63016;55.030;38.710;2023-10-13T00:38:30;98780.66;;;11.46;65.76
74544;BME280;63016;55.030;38.710;2023-10-13T00:40:56;98780.84;;;11.45;65.12
74544;BME280;63016;55.030;38.710;2023-10-13T00:43:28;98782.66;;;11.44;65.63
74544;BME280;63016;55.030;38.710;2023-10-13T00:45:58;98780.03;;;11.44;65.43
74544;BME280;63016;55.030;38.710;2023-10-13T00:48:29;98775.63;;;11.38;65.61
74544;BME280;63016;55.030;38.710;2023-10-13T00:51:06;98777.22;;;11.39;65.57
74544;BME280;63016;55.030;38.710;2023-10-13T00:53:36;98785.25;;;11.38;65.54
74544;BME280;63016;55.030;38.710;2023-10-13T00:56:06;98768.97;;;11.29;65.17
74544;BME280;63016;55.030;38.710;2023-10-13T00:58:33;98787.25;;;11.36;65.37
74544;BME280;63016;55.030;38.710;2023-10-13T01:01:03;98800.50;;;11.34;65.53
74544;BME280;63016;55.030;38.710;2023-10-13T01:03:49;98798.09;;;11.32;65.50
74544;BME280;63016;55.030;38.710;2023-10-13T01:06:17;98794.69;;;11.32;65.16
74544;BME280;63016;55.030;38.710;2023-10-13T01:08:45;98802.53;;;11.32;65.29
74544;BME280;63016;55.030;38.710;2023-10-13T01:11:18;98799.28;;;11.30;65.77
74544;BME280;63016;55.030;38.710;2023-10-13T01:13:44;98798.06;;;11.26;65.58
74544;BME280;63016;55.030;38.710;2023-10-13T01:16:12;98789.03;;;11.22;65.37
74544;BME280;63016;55.030;38.710;2023-10-13T01:18:38;98808.13;;;11.29;65.53
74544;BME280;63016;55.030;38.710;2023-10-13T01:21:14;98803.28;;;11.26;65.64
74544;BME280;63016;55.030;38.710;2023-10-13T01:23:43;98798.28;;;11.18;65.07
74544;BME280;63016;55.030;38.710;2023-10-13T01:26:10;98798.44;;;11.16;65.05
74544;BME280;63016;55.030;38.710;2023-10-13T01:28:38;98810.75;;;11.22;65.21
74544;BME280;63016;55.030;38.710;2023-10-13T01:31:12;98811.13;;;11.19;65.75
74544;BME280;63016;55.030;38.710;2023-10-13T01:33:42;98801.03;;;11.10;65.51
74544;BME280;63016;55.030;38.710;2023-10-13T01:36:08;98809.69;;;11.10;65.57
74544;BME280;63016;55.030;38.710;2023-10-13T01:38:33;98820.34;;;11.15;65.45
74544;BME280;63016;55.030;38.710;2023-10-13T01:40:59;98820.97;;;11.17;65.72
74544;BME280;63016;55.030;38.710;2023-10-13T01:43:24;98827.16;;;11.16;65.53
74544;BME280;63016;55.030;38.710;2023-10-13T01:45:50;98832.38;;;11.16;65.70
74544;BME280;63016;55.030;38.710;2023-10-13T01:48:16;98839.63;;;11.14;65.50
74544;BME280;63016;55.030;38.710;2023-10-13T01:50:45;98830.97;;;11.14;65.53
74544;BME280;63016;55.030;38.710;2023-10-13T01:53:21;98836.00;;;11.15;66.17
74544;BME280;63016;55.030;38.710;2023-10-13T01:55:48;98833.16;;;11.10;65.88
74544;BME280;63016;55.030;38.710;2023-10-13T01:58:16;98841.03;;;11.17;66.12
74544;BME280;63016;55.030;38.710;2023-10-13T02:00:45;98835.19;;;11.08;65.92
74544;BME280;63016;55.030;38.710;2023-10-13T02:03:13;98841.44;;;11.14;65.75
74544;BME280;63016;55.030;38.710;2023-10-13T02:05:43;98847.44;;;11.14;65.71
74544;BME280;63016;55.030;38.710;2023-10-13T02:08:12;98843.19;;;11.06;65.70
74544;BME280;63016;55.030;38.710;2023-10-13T02:10:44;98853.09;;;11.18;66.03
74544;BME280;63016;55.030;38.710;2023-10-13T02:13:14;98834.75;;;11.04;65.81
74544;BME280;63016;55.030;38.710;2023-10-13T02:15:46;98857.88;;;11.14;66.11
74544;BME280;63016;55.030;38.710;2023-10-13T02:18:17;98864.50;;;11.17;65.94
74544;BME280;63016;55.030;38.710;2023-10-13T02:20:47;98866.16;;;11.18;65.62
74544;BME280;63016;55.030;38.710;2023-10-13T02:23:23;98848.84;;;11.10;65.81
74544;BME280;63016;55.030;38.710;2023-10-13T02:25:50;98865.16;;;11.19;66.02
74544;BME280;63016;55.030;38.710;2023-10-13T02:28:26;98858.50;;;11.16;65.60
74544;BME280;63016;55.030;38.710;2023-10-13T02:30:54;98861.31;;;11.15;65.56
74544;BME280;63016;55.030;38.710;2023-10-13T02:33:19;98858.13;;;11.19;65.71
74544;BME280;63016;55.030;38.710;2023-10-13T02:35:56;98867.75;;;11.19;65.59
74544;BME280;63016;55.030;38.710;2023-10-13T02:38:23;98844.41;;;11.11;65.77
74544;BME280;63016;55.030;38.710;2023-10-13T02:40:57;98850.66;;;11.16;65.57
74544;BME280;63016;55.030;38.710;2023-10-13T02:43:34;98862.53;;;11.19;65.58
74544;BME280;63016;55.030;38.710;2023-10-13T02:46:00;98865.53;;;11.16;65.97
74544;BME280;63016;55.030;38.710;2023-10-13T02:48:27;98872.19;;;11.18;65.73
74544;BME280;63016;55.030;38.710;2023-10-13T02:50:59;98873.19;;;11.17;65.76
74544;BME280;63016;55.030;38.710;2023-10-13T02:53:31;98879.38;;;11.16;65.33
74544;BME280;63016;55.030;38.710;2023-10-13T02:55:56;98880.19;;;11.17;65.39
74544;BME280;63016;55.030;38.710;2023-10-13T02:58:23;98874.34;;;11.15;65.66
74544;BME280;63016;55.030;38.710;2023-10-13T03:01:09;98889.66;;;11.18;65.44
74544;BME280;63016;55.030;38.710;2023-10-13T03:03:45;98865.06;;;11.05;65.73
74544;BME280;63016;55.030;38.710;2023-10-13T03:06:17;98884.44;;;11.18;65.87
74544;BME280;63016;55.030;38.710;2023-10-13T03:08:47;98895.66;;;11.18;65.58
74544;BME280;63016;55.030;38.710;2023-10-13T03:11:12;98894.25;;;11.16;65.43
74544;BME280;63016;55.030;38.710;2023-10-13T03:13:40;98896.03;;;11.15;65.44
74544;BME280;63016;55.030;38.710;2023-10-13T03:16:16;98900.47;;;11.15;65.33
74544;BME280;63016;55.030;38.710;2023-10-13T03:18:43;98895.47;;;11.20;64.86
74544;BME280;63016;55.030;38.710;2023-10-13T03:21:17;98911.50;;;11.17;65.23
74544;BME280;63016;55.030;38.710;2023-10-13T03:23:59;98912.13;;;11.19;66.55
74544;BME280;63016;55.030;38.710;2023-10-13T03:26:32;98903.94;;;11.22;65.66
74544;BME280;63016;55.030;38.710;2023-10-13T03:29:03;98910.94;;;11.21;65.56
74544;BME280;63016;55.030;38.710;2023-10-13T03:31:32;98921.38;;;11.21;65.57
74544;BME280;63016;55.030;38.710;2023-10-13T03:34:03;98920.56;;;11.21;65.57
74544;BME280;63016;55.030;38.710;2023-10-13T03:36:29;98913.75;;;11.20;65.74
74544;BME280;63016;55.030;38.710;2023-10-13T03:39:14;98920.78;;;11.19;65.22
74544;BME280;63016;55.030;38.710;2023-10-13T03:41:40;98921.94;;;11.17;65.49
74544;BME280;63016;55.030;38.710;2023-10-13T03:44:06;98923.75;;;11.16;65.23
74544;BME280;63016;55.030;38.710;2023-10-13T03:46:40;98927.19;;;11.17;65.25
74544;BME280;63016;55.030;38.710;2023-10-13T03:49:10;98932.59;;;11.15;65.37
74544;BME280;63016;55.030;38.710;2023-10-13T03:51:41;98934.41;;;11.15;65.43
74544;BME280;63016;55.030;38.710;2023-10-13T03:54:08;98936.00;;;11.16;65.57
74544;BME280;63016;55.030;38.710;2023-10-13T03:56:34;98935.22;;;11.15;65.28
74544;BME280;63016;55.030;38.710;2023-10-13T03:59:07;98942.25;;;11.15;65.26
74544;BME280;63016;55.030;38.710;2023-10-13T04:01:38;98941.19;;;11.09;65.47
74544;BME280;63016;55.030;38.710;2023-10-13T04:04:12;98943.19;;;11.07;64.98
74544;BME280;63016;55.030;38.710;2023-10-13T04:06:38;98950.22;;;11.06;64.92
74544;BME280;63016;55.030;38.710;2023-10-13T04:09:20;98960.47;;;11.08;65.32
74544;BME280;63016;55.030;38.710;2023-10-13T04:11:55;98960.84;;;11.05;65.06
74544;BME280;63016;55.030;38.710;2023-10-13T04:14:40;98966.09;;;11.12;64.85
74544;BME280;63016;55.030;38.710;2023-10-13T04:17:09;98975.94;;;11.10;64.97
74544;BME280;63016;55.030;38.710;2023-10-13T04:19:43;98970.50;;;11.04;65.04
74544;BME280;63016;55.030;38.710;2023-10-13T04:22:28;98973.31;;;11.03;65.11
74544;BME280;63016;55.030;38.710;2023-10-13T04:25:22;98976.88;;;11.02;65.17
74544;BME280;63016;55.030;38.710;2023-10-13T04:28:11;98979.09;;;10.98;65.05
74544;BME280;63016;55.030;38.710;2023-10-13T04:30:50;98983.31;;;10.99;65.00
74544;BME280;63016;55.030;38.710;2023-10-13T04:33:31;98981.88;;;10.97;65.21
74544;BME280;63016;55.030;38.710;2023-10-13T04:36:13;98983.69;;;10.96;65.65
74544;BME280;63016;55.030;38.710;2023-10-13T04:38:43;98989.53;;;10.98;65.58
74544;BME280;63016;55.030;38.710;2023-10-13T04:41:29;98991.38;;;11.04;68.46
74544;BME280;63016;55.030;38.710;2023-10-13T04:44:09;99000.47;;;11.50;69.98
74544;BME280;63016;55.030;38.710;2023-10-13T04:46:54;99006.78;;;12.10;70.10
74544;BME280;63016;55.030;38.710;2023-10-13T04:49:36;99014.94;;;12.68;69.30
74544;BME280;63016;55.030;38.710;2023-10-13T04:52:05;99009.69;;;13.15;68.24
74544;BME280;63016;55.030;38.710;2023-10-13T04:54:35;99021.97;;;13.34;67.54
74544;BME280;63016;55.030;38.710;2023-10-13T04:57:17;99035.44;;;13.57;67.63
74544;BME280;63016;55.030;38.710;2023-10-13T04:59:51;99039.19;;;13.81;67.52
74544;BME280;63016;55.030;38.710;2023-10-13T05:02:32;99037.91;;;13.97;67.06
74544;BME280;63016;55.030;38.710;2023-10-13T05:05:03;99044.16;;;14.03;65.94
74544;BME280;63016;55.030;38.710;2023-10-13T05:07:29;99047.06;;;13.88;64.35
74544;BME280;63016;55.030;38.710;2023-10-13T05:10:13;99055.38;;;13.65;64.04
74544;BME280;63016;55.030;38.710;2023-10-13T05:12:57;99063.47;;;13.44;64.23
74544;BME280;63016;55.030;38.710;2023-10-13T05:15:49;99055.03;;;13.28;64.27
74544;BME280;63016;55.030;38.710;2023-10-13T05:18:34;99062.06;;;13.15;64.43
74544;BME280;63016;55.030;38.710;2023-10-13T05:21:18;99066.91;;;13.04;64.42
74544;BME280;63016;55.030;38.710;2023-10-13T05:24:05;99070.53;;;12.90;64.33
74544;BME280;63016;55.030;38.710;2023-10-13T05:26:51;99066.47;;;12.81;64.40
74544;BME280;63016;55.030;38.710;2023-10-13T05:29:40;99079.78;;;12.73;64.20
74544;BME280;63016;55.030;38.710;2023-10-13T05:32:25;99071.31;;;12.64;64.51
74544;BME280;63016;55.030;38.710;2023-10-13T05:35:09;99080.94;;;12.57;64.66
74544;BME280;63016;55.030;38.710;2023-10-13T05:37:53;99089.59;;;12.51;64.43
74544;BME280;63016;55.030;38.710;2023-10-13T05:40:36;99092.19;;;12.44;64.75
74544;BME280;63016;55.030;38.710;2023-10-13T05:43:20;99093.38;;;12.42;64.64
74544;BME280;63016;55.030;38.710;2023-10-13T05:46:05;99096.59;;;12.37;64.66
74544;BME280;63016;55.030;38.710;2023-10-13T05:49:07;99095.38;;;12.33;64.64
74544;BME280;63016;55.030;38.710;2023-10-13T05:51:42;99100.38;;;12.28;64.48
74544;BME280;63016;55.030;38.710;2023-10-13T05:54:13;99099.78;;;12.26;64.71
74544;BME280;63016;55.030;38.710;2023-10-13T05:56:49;99116.28;;;12.26;64.96
74544;BME280;63016;55.030;38.710;2023-10-13T05:59:36;99120.69;;;12.26;64.82
74544;BME280;63016;55.030;38.710;2023-10-13T06:02:40;99118.88;;;12.26;65.17
74544;BME280;63016;55.030;38.710;2023-10-13T06:05:24;99123.75;;;12.29;65.10
74544;BME280;63016;55.030;38.710;2023-10-13T06:08:08;99130.19;;;12.33;65.29
74544;BME280;63016;55.030;38.710;2023-10-13T06:11:01;99129.22;;;12.41;65.41
74544;BME280;63016;55.030;38.710;2023-10-13T06:13:45;99136.25;;;12.47;65.21
74544;BME280;63016;55.030;38.710;2023-10-13T06:16:29;99144.75;;;12.56;65.45
74544;BME280;63016;55.030;38.710;2023-10-13T06:19:13;99149.41;;;12.60;64.96
74544;BME280;63016;55.030;38.710;2023-10-13T06:21:57;99153.44;;;12.63;64.41
74544;BME280;63016;55.030;38.710;2023-10-13T06:24:41;99151.63;;;12.64;64.79
74544;BME280;63016;55.030;38.710;2023-10-13T06:27:24;99150.03;;;12.63;64.60
74544;BME280;63016;55.030;38.710;2023-10-13T06:30:09;99160.28;;;12.64;64.98
74544;BME280;63016;55.030;38.710;2023-10-13T06:32:34;99154.47;;;12.62;64.77
74544;BME280;63016;55.030;38.710;2023-10-13T06:35:05;99145.19;;;12.66;64.73
74544;BME280;63016;55.030;38.710;2023-10-13T06:37:34;99164.72;;;12.70;64.61
74544;BME280;63016;55.030;38.710;2023-10-13T06:40:11;99160.50;;;12.69;64.34
74544;BME280;63016;55.030;38.710;2023-10-13T06:43:00;99188.72;;;12.74;64.73
74544;BME280;63016;55.030;38.710;2023-10-13T06:45:42;99167.56;;;12.75;64.46
74544;BME280;63016;55.030;38.710;2023-10-13T06:48:09;99154.28;;;12.77;64.50
74544;BME280;63016;55.030;38.710;2023-10-13T06:50:39;99174.22;;;12.78;64.39
74544;BME280;63016;55.030;38.710;2023-10-13T06:53:07;99178.66;;;12.77;64.38
74544;BME280;63016;55.030;38.710;2023-10-13T06:55:36;99188.34;;;12.83;65.58
74544;BME280;63016;55.030;38.710;2023-10-13T06:58:05;99182.94;;;12.98;65.39
74544;BME280;63016;55.030;38.710;2023-10-13T07:00:32;99192.59;;;13.04;64.82
74544;BME280;63016;55.030;38.710;2023-10-13T07:03:04;99194.84;;;13.07;64.53
74544;BME280;63016;55.030;38.710;2023-10-13T07:05:43;99208.34;;;13.11;64.26
74544;BME280;63016;55.030;38.710;2023-10-13T07:08:09;99201.28;;;13.11;63.89
74544;BME280;63016;55.030;38.710;2023-10-13T07:10:47;99204.31;;;13.08;63.57
74544;BME280;63016;55.030;38.710;2023-10-13T07:13:34;99207.94;;;13.07;64.02
74544;BME280;63016;55.030;38.710;2023-10-13T07:16:03;99212.78;;;13.10;64.02
74544;BME280;63016;55.030;38.710;2023-10-13T07:18:38;99209.75;;;13.13;65.09
74544;BME280;63016;55.030;38.710;2023-10-13T07:21:19;99213.22;;;13.21;64.39
74544;BME280;63016;55.030;38.710;2023-10-13T07:23:54;99215.25;;;13.25;64.34
74544;BME280;63016;55.030;38.710;2023-10-13T07:26:33;99206.81;;;13.30;64.70
74544;BME280;63016;55.030;38.710;2023-10-13T07:28:59;99220.72;;;13.37;64.48
74544;BME280;63016;55.030;38.710;2023-10-13T07:31:25;99218.28;;;13.42;64.49
74544;BME280;63016;55.030;38.710;2023-10-13T07:33:52;99219.50;;;13.53;64.20
74544;BME280;63016;55.030;38.710;2023-10-13T07:36:21;99219.53;;;13.59;63.77
74544;BME280;63016;55.030;38.710;2023-10-13T07:38:50;99220.53;;;13.65;63.86
74544;BME280;63016;55.030;38.710;2023-10-13T07:41:25;99222.53;;;13.70;63.72
74544;BME280;63016;55.030;38.710;2023-10-13T07:43:56;99229.41;;;13.71;63.50
74544;BME280;63016;55.030;38.710;2023-10-13T07:46:23;99229.81;;;13.74;63.69
74544;BME280;63016;55.030;38.710;2023-10-13T07:48:55;99238.69;;;13.80;63.84
74544;BME280;63016;55.030;38.710;2023-10-13T07:51:34;99242.50;;;13.84;63.73
74544;BME280;63016;55.030;38.710;2023-10-13T07:54:10;99254.22;;;13.88;63.35
74544;BME280;63016;55.030;38.710;2023-10-13T07:56:38;99248.13;;;13.87;63.26
74544;BME280;63016;55.030;38.710;2023-10-13T07:59:05;99255.63;;;13.84;63.03
74544;BME280;63016;55.030;38.710;2023-10-13T08:01:34;99266.09;;;13.84;62.70
74544;BME280;63016;55.030;38.710;2023-10-13T08:03:59;99278.81;;;13.80;63.02
74544;BME280;63016;55.030;38.710;2023-10-13T08:06:40;99267.72;;;13.78;62.88
74544;BME280;63016;55.030;38.710;2023-10-13T08:09:09;99274.16;;;13.76;62.48
74544;BME280;63016;55.030;38.710;2023-10-13T08:11:54;99273.38;;;13.75;62.71
74544;BME280;63016;55.030;38.710;2023-10-13T08:14:20;99272.97;;;13.78;63.01
74544;BME280;63016;55.030;38.710;2023-10-13T08:16:49;99270.94;;;13.80;62.65
74544;BME280;63016;55.030;38.710;2023-10-13T08:19:25;99287.09;;;13.84;62.75
74544;BME280;63016;55.030;38.710;2023-10-13T08:21:58;99285.69;;;13.88;63.05
74544;BME280;63016;55.030;38.710;2023-10-13T08:24:26;99284.44;;;13.97;63.15
74544;BME280;63016;55.030;38.710;2023-10-13T08:27:15;99294.16;;;14.03;62.78
74544;BME280;63016;55.030;38.710;2023-10-13T08:30:01;99287.88;;;14.04;62.36
74544;BME280;63016;55.030;38.710;2023-10-13T08:32:28;99295.53;;;14.06;62.38
74544;BME280;63016;55.030;38.710;2023-10-13T08:34:55;99296.56;;;14.05;62.10
74544;BME280;63016;55.030;38.710;2023-10-13T08:37:25;99308.47;;;14.01;62.17
74544;BME280;63016;55.030;38.710;2023-10-13T08:39:53;99314.13;;;14.04;62.67
74544;BME280;63016;55.030;38.710;2023-10-13T08:42:38;99321.16;;;14.10;62.14
74544;BME280;63016;55.030;38.710;2023-10-13T08:45:16;99318.97;;;14.14;64.19
74544;BME280;63016;55.030;38.710;2023-10-13T08:47:52;99314.09;;;14.24;62.97
74544;BME280;63016;55.030;38.710;2023-10-13T08:50:35;99325.59;;;14.30;62.34
74544;BME280;63016;55.030;38.710;2023-10-13T08:53:31;99335.09;;;14.31;62.30
74544;BME280;63016;55.030;38.710;2023-10-13T08:58:32;99333.06;;;14.33;61.75
74544;BME280;63016;55.030;38.710;2023-10-13T09:01:17;99331.25;;;14.40;62.61
74544;BME280;63016;55.030;38.710;2023-10-13T09:07:02;99347.19;;;14.58;61.70
74544;BME280;63016;55.030;38.710;2023-10-13T09:12:28;99353.88;;;14.54;61.17
74544;BME280;63016;55.030;38.710;2023-10-13T09:14:56;99352.47;;;14.52;61.61
74544;BME280;63016;55.030;38.710;2023-10-13T09:17:27;99350.25;;;14.49;61.77
74544;BME280;63016;55.030;38.710;2023-10-13T09:22:48;99365.00;;;14.56;61.76
74544;BME280;63016;55.030;38.710;2023-10-13T09:25:38;99369.81;;;14.59;61.39
74544;BME280;63016;55.030;38.710;2023-10-13T09:28:19;99373.88;;;14.62;61.38
74544;BME280;63016;55.030;38.710;2023-10-13T09:30:52;99357.69;;;14.58;61.53
74544;BME280;63016;55.030;38.710;2023-10-13T09:33:23;99376.28;;;14.70;61.48
74544;BME280;63016;55.030;38.710;2023-10-13T09:36:02;99374.03;;;14.74;61.67
74544;BME280;63016;55.030;38.710;2023-10-13T09:38:32;99348.81;;;14.66;61.58
74544;BME280;63016;55.030;38.710;2023-10-13T09:40:58;99404.13;;;14.84;61.56
74544;BME280;63016;55.030;38.710;2023-10-13T09:43:35;99387.16;;;14.80;61.18
74544;BME280;63016;55.030;38.710;2023-10-13T09:46:04;99367.78;;;14.75;61.13
74544;BME280;63016;55.030;38.710;2023-10-13T09:48:37;99398.25;;;14.89;60.81
74544;BME280;63016;55.030;38.710;2023-10-13T09:51:12;99397.22;;;14.97;61.02
74544;BME280;63016;55.030;38.710;2023-10-13T09:53:40;99413.97;;;15.02;60.96
74544;BME280;63016;55.030;38.710;2023-10-13T09:56:25;99400.03;;;15.02;60.96
74544;BME280;63016;55.030;38.710;2023-10-13T09:59:06;99378.44;;;14.93;60.34
74544;BME280;63016;55.030;38.710;2023-10-13T10:01:45;99403.03;;;15.12;60.68
74544;BME280;63016;55.030;38.710;2023-10-13T10:04:18;99407.69;;;15.16;60.49
74544;BME280;63016;55.030;38.710;2023-10-13T10:06:55;99387.09;;;15.13;60.19
74544;BME280;63016;55.030;38.710;2023-10-13T10:09:27;99400.78;;;15.29;60.09
74544;BME280;63016;55.030;38.710;2023-10-13T10:14:45;99407.19;;;15.39;60.46
74544;BME280;63016;55.030;38.710;2023-10-13T10:17:20;99411.84;;;15.44;60.16
74544;BME280;63016;55.030;38.710;2023-10-13T10:19:48;99410.59;;;15.53;60.23
74544;BME280;63016;55.030;38.710;2023-10-13T10:22:28;99401.53;;;15.42;60.05
74544;BME280;63016;55.030;38.710;2023-10-13T10:25:02;99439.69;;;15.58;59.34
74544;BME280;63016;55.030;38.710;2023-10-13T10:27:30;99428.81;;;15.48;59.41
74544;BME280;63016;55.030;38.710;2023-10-13T10:29:57;99429.00;;;15.47;58.91
74544;BME280;63016;55.030;38.710;2023-10-13T10:32:36;99453.25;;;15.55;59.09
74544;BME280;63016;55.030;38.710;2023-10-13T10:35:10;99452.03;;;15.51;58.36
74544;BME280;63016;55.030;38.710;2023-10-13T10:37:46;99450.66;;;15.42;58.07
74544;BME280;63016;55.030;38.710;2023-10-13T10:40:18;99442.63;;;15.30;60.68
74544;BME280;63016;55.030;38.710;2023-10-13T10:43:04;99452.47;;;15.41;61.78
74544;BME280;63016;55.030;38.710;2023-10-13T10:45:35;99456.31;;;15.52;62.17
74544;BME280;63016;55.030;38.710;2023-10-13T10:48:01;99448.34;;;15.72;62.72
74544;BME280;63016;55.030;38.710;2023-10-13T10:50:42;99459.41;;;15.81;60.74
74544;BME280;63016;55.030;38.710;2023-10-13T10:53:10;99467.53;;;15.86;60.77
74544;BME280;63016;55.030;38.710;2023-10-13T10:55:36;99461.25;;;15.80;58.92
74544;BME280;63016;55.030;38.710;2023-10-13T10:58:03;99477.47;;;15.77;58.53
74544;BME280;63016;55.030;38.710;2023-10-13T11:00:33;99456.31;;;15.52;58.10
74544;BME280;63016;55.030;38.710;2023-10-13T11:03:17;99464.56;;;15.56;58.44
74544;BME280;63016;55.030;38.710;2023-10-13T11:05:47;99476.50;;;15.58;58.45
74544;BME280;63016;55.030;38.710;2023-10-13T11:08:24;99473.69;;;15.47;58.10
74544;BME280;63016;55.030;38.710;2023-10-13T11:10:58;99477.34;;;15.52;58.77
74544;BME280;63016;55.030;38.710;2023-10-13T11:13:26;99507.44;;;15.56;58.74
74544;BME280;63016;55.030;38.710;2023-10-13T11:15:56;99503.19;;;15.55;58.69
74544;BME280;63016;55.030;38.710;2023-10-13T11:18:30;99495.34;;;15.49;58.02
74544;BME280;63016;55.030;38.710;2023-10-13T11:21:06;99501.41;;;15.49;59.05
74544;BME280;63016;55.030;38.710;2023-10-13T11:23:33;99499.53;;;15.56;58.97
74544;BME280;63016;55.030;38.710;2023-10-13T11:26:02;99502.56;;;15.60;59.00
74544;BME280;63016;55.030;38.710;2023-10-13T11:28:29;99508.06;;;15.65;58.73
74544;BME280;63016;55.030;38.710;2023-10-13T11:30:57;99507.88;;;15.66;58.50
74544;BME280;63016;55.030;38.710;2023-10-13T11:33:36;99519.78;;;15.69;58.45
74544;BME280;63016;55.030;38.710;2023-10-13T11:36:01;99521.59;;;15.68;58.20
74544;BME280;63016;55.030;38.710;2023-10-13T11:38:38;99522.41;;;15.69;58.08
74544;BME280;63016;55.030;38.710;2023-10-13T11:41:30;99515.94;;;15.65;58.14
74544;BME280;63016;55.030;38.710;2023-10-13T11:43:59;99524.00;;;15.70;59.78
74544;BME280;63016;55.030;38.710;2023-10-13T11:46:37;99526.63;;;15.77;61.69
74544;BME280;63016;55.030;38.710;2023-10-13T11:49:21;99534.06;;;15.93;61.92
74544;BME280;63016;55.030;38.710;2023-10-13T11:51:53;99523.50;;;16.00;60.68
74544;BME280;63016;55.030;38.710;2023-10-13T11:54:34;99542.06;;;16.11;60.93
74544;BME280;63016;55.030;38.710;2023-10-13T11:57:03;99536.94;;;16.23;61.21
74544;BME280;63016;55.030;38.710;2023-10-13T11:59:33;99534.13;;;16.25;60.72
74544;BME280;63016;55.030;38.710;2023-10-13T12:02:02;99542.78;;;16.32;59.08
74544;BME280;63016;55.030;38.710;2023-10-13T12:04:47;99536.31;;;16.28;60.16
74544;BME280;63016;55.030;38.710;2023-10-13T12:07:21;99549.66;;;16.33;59.00
74544;BME280;63016;55.030;38.710;2023-10-13T12:09:53;99548.03;;;16.32;59.83
74544;BME280;63016;55.030;38.710;2023-10-13T12:12:26;99552.09;;;16.34;60.94
74544;BME280;63016;55.030;38.710;2023-10-13T12:14:53;99553.66;;;16.42;59.25
74544;BME280;63016;55.030;38.710;2023-10-13T12:17:29;99554.44;;;16.42;59.47
74544;BME280;63016;55.030;38.710;2023-10-13T12:20:05;99559.31;;;16.39;59.67
74544;BME280;63016;55.030;38.710;2023-10-13T12:22:32;99566.97;;;16.47;59.37
74544;BME280;63016;55.030;38.710;2023-10-13T12:25:20;99553.81;;;16.47;59.64
74544;BME280;63016;55.030;38.710;2023-10-13T12:27:58;99558.50;;;16.45;59.44
74544;BME280;63016;55.030;38.710;2023-10-13T12:30:41;99560.50;;;16.50;60.12
74544;BME280;63016;55.030;38.710;2023-10-13T12:33:19;99570.41;;;16.54;60.01
74544;BME280;63016;55.030;38.710;2023-10-13T12:38:58;99576.25;;;16.56;60.51
74544;BME280;63016;55.030;38.710;2023-10-13T12:41:46;99556.63;;;16.52;59.89
74544;BME280;63016;55.030;38.710;2023-10-13T12:44:31;99570.56;;;16.59;60.33
74544;BME280;63016;55.030;38.710;2023-10-13T12:47:15;99573.78;;;16.61;59.22
74544;BME280;63016;55.030;38.710;2023-10-13T12:49:59;99570.97;;;16.56;58.17
74544;BME280;63016;55.030;38.710;2023-10-13T12:52:32;99565.16;;;16.48;58.32
74544;BME280;63016;55.030;38.710;2023-10-13T12:54:58;99547.44;;;16.30;58.06
74544;BME280;63016;55.030;38.710;2023-10-13T12:57:27;99571.91;;;16.37;57.36
74544;BME280;63016;55.030;38.710;2023-10-13T12:59:54;99571.31;;;16.35;57.53
74544;BME280;63016;55.030;38.710;2023-10-13T13:02:24;99557.03;;;16.17;57.42
74544;BME280;63016;55.030;38.710;2023-10-13T13:04:51;99563.13;;;16.11;57.08
74544;BME280;63016;55.030;38.710;2023-10-13T13:07:22;99567.78;;;16.16;57.08
74544;BME280;63016;55.030;38.710;2023-10-13T13:09:56;99565.59;;;16.00;57.37
74544;BME280;63016;55.030;38.710;2023-10-13T13:12:25;99545.84;;;15.77;57.15
74544;BME280;63016;55.030;38.710;2023-10-13T13:14:54;99572.53;;;15.87;57.19
74544;BME280;63016;55.030;38.710;2023-10-13T13:17:21;99537.78;;;15.59;57.26
74544;BME280;63016;55.030;38.710;2023-10-13T13:19:49;99554.38;;;15.66;57.06
74544;BME280;63016;55.030;38.710;2023-10-13T13:22:15;99585.72;;;15.74;57.08
74544;BME280;63016;55.030;38.710;2023-10-13T13:24:43;99579.28;;;15.63;56.98
74544;BME280;63016;55.030;38.710;2023-10-13T13:27:16;99605.38;;;15.72;56.89
74544;BME280;63016;55.030;38.710;2023-10-13T13:29:47;99602.53;;;15.66;57.02
74544;BME280;63016;55.030;38.710;2023-10-13T13:32:13;99611.03;;;15.62;56.78
74544;BME280;63016;55.030;38.710;2023-10-13T13:34:49;99611.00;;;15.55;56.80
74544;BME280;63016;55.030;38.710;2023-10-13T13:37:35;99611.63;;;15.44;56.81
74544;BME280;63016;55.030;38.710;2023-10-13T13:40:06;99621.53;;;15.42;56.78
74544;BME280;63016;55.030;38.710;2023-10-13T13:42:42;99628.41;;;15.36;57.08